sensor_id;sensor_type;location;lat;lon;timestamp;P1;P2;P0
61542;PMS5003;47414;43.168;44.812;2023-01-10T00:02:49;16.50;15.25;9.00
61542;PMS5003;47414;43.168;44.812;2023-01-10T00:07:50;22.00;17.00;11.50
61542;PMS5003;47414;43.168;44.812;2023-01-10T00:12:50;16.00;16.00;11.00
61542;PMS5003;47414;43.168;44.812;2023-01-10T00:17:52;18.25;16.50;10.50
61542;PMS5003;47414;43.168;44.812;2023-01-10T00:22:53;15.50;15.00;11.00
61542;PMS5003;47414;43.168;44.812;2023-01-10T00:27:53;21.75;18.00;11.00
61542;PMS5003;47414;43.168;44.812;2023-01-10T00:32:55;15.25;13.00;8.50
61542;PMS5003;47414;43.168;44.812;2023-01-10T00:37:56;19.00;17.50;10.50
61542;PMS5003;47414;43.168;44.812;2023-01-10T00:42:56;14.75;13.00;9.75
61542;PMS5003;47414;43.168;44.812;2023-01-10T00:47:58;22.00;15.00;9.50
61542;PMS5003;47414;43.168;44.812;2023-01-10T00:52:59;10.00;9.00;6.75
61542;PMS5003;47414;43.168;44.812;2023-01-10T00:57:59;13.00;13.00;8.50
61542;PMS5003;47414;43.168;44.812;2023-01-10T01:03:01;4.00;4.00;3.25
61542;PMS5003;47414;43.168;44.812;2023-01-10T01:08:02;11.00;10.50;7.50
61542;PMS5003;47414;43.168;44.812;2023-01-10T01:13:05;16.50;15.25;10.00
61542;PMS5003;47414;43.168;44.812;2023-01-10T01:18:08;13.00;13.00;7.25
61542;PMS5003;47414;43.168;44.812;2023-01-10T01:23:09;19.50;18.00;6.25
61542;PMS5003;47414;43.168;44.812;2023-01-10T01:28:09;30.25;20.25;12.00
61542;PMS5003;47414;43.168;44.812;2023-01-10T01:33:12;10.50;10.50;6.50
61542;PMS5003;47414;43.168;44.812;2023-01-10T01:38:13;12.00;12.00;10.00
61542;PMS5003;47414;43.168;44.812;2023-01-10T01:43:21;13.25;12.50;9.50
61542;PMS5003;47414;43.168;44.812;2023-01-10T01:48:26;30.75;27.25;13.50
61542;PMS5003;47414;43.168;44.812;2023-01-10T01:53:28;27.00;25.50;14.50
61542;PMS5003;47414;43.168;44.812;2023-01-10T01:58:31;36.50;33.50;21.75
61542;PMS5003;47414;43.168;44.812;2023-01-10T02:03:36;35.00;30.50;15.25
61542;PMS5003;47414;43.168;44.812;2023-01-10T02:08:37;29.25;28.00;16.00
61542;PMS5003;47414;43.168;44.812;2023-01-10T02:13:43;31.00;28.75;17.00
61542;PMS5003;47414;43.168;44.812;2023-01-10T02:18:45;27.75;24.75;13.75
61542;PMS5003;47414;43.168;44.812;2023-01-10T02:34:22;21.75;21.00;13.25
61542;PMS5003;47414;43.168;44.812;2023-01-10T02:39:27;44.00;37.00;21.75
61542;PMS5003;47414;43.168;44.812;2023-01-10T02:44:30;33.75;25.25;12.25
61542;PMS5003;47414;43.168;44.812;2023-01-10T02:49:41;42.75;40.75;21.00
61542;PMS5003;47414;43.168;44.812;2023-01-10T02:54:42;37.25;33.50;17.00
61542;PMS5003;47414;43.168;44.812;2023-01-10T03:05:09;34.50;31.25;19.00
61542;PMS5003;47414;43.168;44.812;2023-01-10T03:10:13;33.00;27.25;20.00
61542;PMS5003;47414;43.168;44.812;2023-01-10T03:15:15;14.50;13.00;12.50
61542;PMS5003;47414;43.168;44.812;2023-01-10T03:20:17;42.00;40.25;22.00
61542;PMS5003;47414;43.168;44.812;2023-01-10T03:25:20;34.25;31.00;17.50
61542;PMS5003;47414;43.168;44.812;2023-01-10T03:30:24;30.25;26.00;15.25
61542;PMS5003;47414;43.168;44.812;2023-01-10T03:35:29;21.75;20.50;15.00
61542;PMS5003;47414;43.168;44.812;2023-01-10T03:40:31;35.50;32.00;19.00
61542;PMS5003;47414;43.168;44.812;2023-01-10T03:45:36;32.25;29.50;18.25
61542;PMS5003;47414;43.168;44.812;2023-01-10T03:50:41;36.75;29.25;18.75
61542;PMS5003;47414;43.168;44.812;2023-01-10T03:55:42;35.50;32.50;16.00
61542;PMS5003;47414;43.168;44.812;2023-01-10T04:00:44;21.50;21.25;12.00
61542;PMS5003;47414;43.168;44.812;2023-01-10T04:05:46;20.00;19.50;15.00
61542;PMS5003;47414;43.168;44.812;2023-01-10T04:10:47;24.25;20.75;13.00
61542;PMS5003;47414;43.168;44.812;2023-01-10T04:15:48;22.00;19.00;10.00
61542;PMS5003;47414;43.168;44.812;2023-01-10T04:20:49;15.75;15.00;10.00
61542;PMS5003;47414;43.168;44.812;2023-01-10T04:25:50;20.75;17.00;9.25
61542;PMS5003;47414;43.168;44.812;2023-01-10T04:30:50;24.00;22.00;12.00
61542;PMS5003;47414;43.168;44.812;2023-01-10T04:35:52;15.00;15.00;10.00
61542;PMS5003;47414;43.168;44.812;2023-01-10T04:40:53;15.75;13.50;9.25
61542;PMS5003;47414;43.168;44.812;2023-01-10T04:45:54;16.25;16.25;10.00
61542;PMS5003;47414;43.168;44.812;2023-01-10T04:50:56;21.00;19.00;9.50
61542;PMS5003;47414;43.168;44.812;2023-01-10T04:56:00;24.25;22.25;12.50
61542;PMS5003;47414;43.168;44.812;2023-01-10T05:01:05;24.00;24.00;14.50
61542;PMS5003;47414;43.168;44.812;2023-01-10T05:06:07;27.50;24.25;12.00
61542;PMS5003;47414;43.168;44.812;2023-01-10T05:11:08;24.50;22.50;13.50
61542;PMS5003;47414;43.168;44.812;2023-01-10T05:16:08;27.25;24.50;15.00
61542;PMS5003;47414;43.168;44.812;2023-01-10T05:21:11;36.75;29.00;15.00
61542;PMS5003;47414;43.168;44.812;2023-01-10T05:26:13;17.75;15.50;11.00
61542;PMS5003;47414;43.168;44.812;2023-01-10T05:31:15;31.25;29.00;16.50
61542;PMS5003;47414;43.168;44.812;2023-01-10T05:36:18;21.50;18.75;12.25
61542;PMS5003;47414;43.168;44.812;2023-01-10T05:41:18;30.00;28.50;16.50
61542;PMS5003;47414;43.168;44.812;2023-01-10T05:46:19;28.25;22.25;13.00
61542;PMS5003;47414;43.168;44.812;2023-01-10T05:51:21;33.75;30.75;19.00
61542;PMS5003;47414;43.168;44.812;2023-01-10T05:56:21;42.50;31.50;18.25
61542;PMS5003;47414;43.168;44.812;2023-01-10T06:01:22;31.25;23.75;12.25
61542;PMS5003;47414;43.168;44.812;2023-01-10T06:06:23;24.50;22.50;13.00
61542;PMS5003;47414;43.168;44.812;2023-01-10T06:11:24;26.00;26.00;18.25
61542;PMS5003;47414;43.168;44.812;2023-01-10T06:16:25;36.75;32.50;21.50
61542;PMS5003;47414;43.168;44.812;2023-01-10T06:21:27;34.67;29.67;18.67
61542;PMS5003;47414;43.168;44.812;2023-01-10T06:26:27;25.00;22.25;16.50
61542;PMS5003;47414;43.168;44.812;2023-01-10T06:31:28;32.25;30.75;18.25
61542;PMS5003;47414;43.168;44.812;2023-01-10T06:36:30;38.33;34.00;19.00
61542;PMS5003;47414;43.168;44.812;2023-01-10T06:41:30;36.33;34.00;18.33
61542;PMS5003;47414;43.168;44.812;2023-01-10T06:46:31;25.00;25.00;16.67
61542;PMS5003;47414;43.168;44.812;2023-01-10T06:51:33;38.33;35.33;21.00
61542;PMS5003;47414;43.168;44.812;2023-01-10T06:56:33;36.67;35.33;18.67
61542;PMS5003;47414;43.168;44.812;2023-01-10T07:01:34;47.00;43.33;27.00
61542;PMS5003;47414;43.168;44.812;2023-01-10T07:06:36;39.67;36.33;20.33
61542;PMS5003;47414;43.168;44.812;2023-01-10T07:11:37;48.67;43.67;28.67
61542;PMS5003;47414;43.168;44.812;2023-01-10T07:16:37;32.67;30.67;23.33
61542;PMS5003;47414;43.168;44.812;2023-01-10T07:21:39;31.33;29.33;18.33
61542;PMS5003;47414;43.168;44.812;2023-01-10T07:26:40;34.00;34.00;22.00
61542;PMS5003;47414;43.168;44.812;2023-01-10T07:31:40;37.67;33.67;23.33
61542;PMS5003;47414;43.168;44.812;2023-01-10T07:36:42;30.67;28.00;14.33
61542;PMS5003;47414;43.168;44.812;2023-01-10T07:41:43;33.33;27.67;17.33
61542;PMS5003;47414;43.168;44.812;2023-01-10T07:46:43;30.33;25.67;15.33
61542;PMS5003;47414;43.168;44.812;2023-01-10T07:51:45;40.00;37.00;24.67
61542;PMS5003;47414;43.168;44.812;2023-01-10T07:56:46;44.67;41.00;24.33
61542;PMS5003;47414;43.168;44.812;2023-01-10T08:01:46;33.33;28.33;18.67
61542;PMS5003;47414;43.168;44.812;2023-01-10T08:06:48;38.33;35.33;21.00
61542;PMS5003;47414;43.168;44.812;2023-01-10T08:11:48;36.00;34.00;18.33
61542;PMS5003;47414;43.168;44.812;2023-01-10T08:16:49;36.33;34.67;23.00
61542;PMS5003;47414;43.168;44.812;2023-01-10T08:21:51;22.67;21.00;14.33
61542;PMS5003;47414;43.168;44.812;2023-01-10T08:26:51;33.00;28.00;15.00
61542;PMS5003;47414;43.168;44.812;2023-01-10T08:31:52;16.00;15.00;11.33
61542;PMS5003;47414;43.168;44.812;2023-01-10T08:36:54;32.00;32.00;19.00
61542;PMS5003;47414;43.168;44.812;2023-01-10T08:41:54;29.33;25.00;13.67
61542;PMS5003;47414;43.168;44.812;2023-01-10T08:46:55;21.67;21.67;11.33
61542;PMS5003;47414;43.168;44.812;2023-01-10T08:51:57;17.00;13.67;10.67
61542;PMS5003;47414;43.168;44.812;2023-01-10T08:56:58;21.67;18.67;12.67
61542;PMS5003;47414;43.168;44.812;2023-01-10T09:01:58;16.67;15.33;13.00
61542;PMS5003;47414;43.168;44.812;2023-01-10T09:07:00;24.67;17.33;7.67
61542;PMS5003;47414;43.168;44.812;2023-01-10T09:12:01;15.00;14.33;13.67
61542;PMS5003;47414;43.168;44.812;2023-01-10T09:17:01;33.00;31.67;21.00
61542;PMS5003;47414;43.168;44.812;2023-01-10T09:22:03;28.33;24.33;14.33
61542;PMS5003;47414;43.168;44.812;2023-01-10T09:27:04;28.67;27.33;15.33
61542;PMS5003;47414;43.168;44.812;2023-01-10T09:32:04;29.00;27.67;18.00
61542;PMS5003;47414;43.168;44.812;2023-01-10T09:37:06;34.67;30.67;15.33
61542;PMS5003;47414;43.168;44.812;2023-01-10T09:42:10;11.00;8.33;4.00
61542;PMS5003;47414;43.168;44.812;2023-01-10T09:47:15;40.00;37.00;21.00
61542;PMS5003;47414;43.168;44.812;2023-01-10T09:52:24;36.67;36.67;24.33
61542;PMS5003;47414;43.168;44.812;2023-01-10T09:57:27;46.67;42.00;24.00
61542;PMS5003;47414;43.168;44.812;2023-01-10T10:02:28;42.33;41.00;25.00
61542;PMS5003;47414;43.168;44.812;2023-01-10T10:07:31;31.67;31.00;21.00
61542;PMS5003;47414;43.168;44.812;2023-01-10T10:12:35;27.00;25.67;15.00
61542;PMS5003;47414;43.168;44.812;2023-01-10T10:17:40;27.67;25.00;18.00
61542;PMS5003;47414;43.168;44.812;2023-01-10T10:22:46;30.67;28.33;12.33
61542;PMS5003;47414;43.168;44.812;2023-01-10T10:27:52;30.67;28.00;18.67
61542;PMS5003;47414;43.168;44.812;2023-01-10T10:33:08;15.25;14.00;11.00
61542;PMS5003;47414;43.168;44.812;2023-01-10T10:38:16;18.25;17.50;10.00
61542;PMS5003;47414;43.168;44.812;2023-01-10T10:43:19;19.50;19.00;12.25
61542;PMS5003;47414;43.168;44.812;2023-01-10T10:48:21;19.75;19.50;12.50
61542;PMS5003;47414;43.168;44.812;2023-01-10T10:53:24;19.33;17.67;12.67
61542;PMS5003;47414;43.168;44.812;2023-01-10T10:58:25;23.50;22.50;12.00
61542;PMS5003;47414;43.168;44.812;2023-01-10T11:03:27;20.00;18.75;11.25
61542;PMS5003;47414;43.168;44.812;2023-01-10T11:08:31;18.33;16.67;12.00
61542;PMS5003;47414;43.168;44.812;2023-01-10T11:13:39;12.75;12.75;4.00
61542;PMS5003;47414;43.168;44.812;2023-01-10T11:18:42;15.25;14.50;10.00
61542;PMS5003;47414;43.168;44.812;2023-01-10T11:23:48;14.50;14.50;9.00
61542;PMS5003;47414;43.168;44.812;2023-01-10T11:28:50;15.00;15.00;9.50
61542;PMS5003;47414;43.168;44.812;2023-01-10T11:33:52;19.25;19.00;10.75
61542;PMS5003;47414;43.168;44.812;2023-01-10T11:38:59;14.00;13.00;9.00
61542;PMS5003;47414;43.168;44.812;2023-01-10T11:44:15;16.00;15.67;9.00
61542;PMS5003;47414;43.168;44.812;2023-01-10T11:49:18;12.33;10.67;9.00
61542;PMS5003;47414;43.168;44.812;2023-01-10T11:54:24;21.00;18.67;14.33
61542;PMS5003;47414;43.168;44.812;2023-01-10T11:59:25;18.67;16.67;8.33
61542;PMS5003;47414;43.168;44.812;2023-01-10T12:04:27;20.33;18.67;12.00
61542;PMS5003;47414;43.168;44.812;2023-01-10T12:09:33;15.00;12.33;7.00
61542;PMS5003;47414;43.168;44.812;2023-01-10T12:14:35;20.33;18.00;12.33
61542;PMS5003;47414;43.168;44.812;2023-01-10T12:19:35;19.00;18.00;11.33
61542;PMS5003;47414;43.168;44.812;2023-01-10T12:24:37;20.67;19.67;13.67
61542;PMS5003;47414;43.168;44.812;2023-01-10T12:29:41;21.00;19.67;13.00
61542;PMS5003;47414;43.168;44.812;2023-01-10T12:34:43;19.67;19.00;14.33
61542;PMS5003;47414;43.168;44.812;2023-01-10T12:39:47;15.33;13.00;7.00
61542;PMS5003;47414;43.168;44.812;2023-01-10T12:44:52;8.33;7.67;4.00
61542;PMS5003;47414;43.168;44.812;2023-01-10T12:49:58;12.00;9.33;7.00
61542;PMS5003;47414;43.168;44.812;2023-01-10T12:55:02;12.33;10.00;7.00
61542;PMS5003;47414;43.168;44.812;2023-01-10T13:00:04;8.33;8.33;4.00
61542;PMS5003;47414;43.168;44.812;2023-01-10T13:05:05;18.67;16.00;14.33
61542;PMS5003;47414;43.168;44.812;2023-01-10T13:10:14;16.67;16.00;12.67
61542;PMS5003;47414;43.168;44.812;2023-01-10T13:15:16;9.67;9.00;4.67
61542;PMS5003;47414;43.168;44.812;2023-01-10T13:20:34;7.00;7.00;4.67
61542;PMS5003;47414;43.168;44.812;2023-01-10T13:25:37;9.00;9.00;4.00
61542;PMS5003;47414;43.168;44.812;2023-01-10T13:30:37;7.00;7.00;4.67
61542;PMS5003;47414;43.168;44.812;2023-01-10T13:35:39;20.33;18.67;10.00
61542;PMS5003;47414;43.168;44.812;2023-01-10T13:40:44;30.33;28.67;18.33
61542;PMS5003;47414;43.168;44.812;2023-01-10T13:51:14;19.00;19.00;10.00
61542;PMS5003;47414;43.168;44.812;2023-01-10T14:01:32;32.33;28.67;19.67
61542;PMS5003;47414;43.168;44.812;2023-01-10T14:06:36;33.00;31.33;15.67
61542;PMS5003;47414;43.168;44.812;2023-01-10T14:11:47;26.67;24.33;18.00
61542;PMS5003;47414;43.168;44.812;2023-01-10T14:16:50;30.00;25.00;16.00
61542;PMS5003;47414;43.168;44.812;2023-01-10T14:21:52;28.00;27.00;15.00
61542;PMS5003;47414;43.168;44.812;2023-01-10T14:26:54;25.67;25.67;15.67
61542;PMS5003;47414;43.168;44.812;2023-01-10T14:31:59;32.67;26.67;15.00
61542;PMS5003;47414;43.168;44.812;2023-01-10T14:37:00;26.33;25.67;18.00
61542;PMS5003;47414;43.168;44.812;2023-01-10T14:42:01;23.33;23.00;13.00
61542;PMS5003;47414;43.168;44.812;2023-01-10T14:47:20;23.67;23.67;15.67
61542;PMS5003;47414;43.168;44.812;2023-01-10T14:52:24;30.00;28.00;18.67
61542;PMS5003;47414;43.168;44.812;2023-01-10T14:57:25;22.67;21.00;13.67
61542;PMS5003;47414;43.168;44.812;2023-01-10T15:02:27;30.00;28.67;18.33
61542;PMS5003;47414;43.168;44.812;2023-01-10T15:07:27;32.33;30.00;19.67
61542;PMS5003;47414;43.168;44.812;2023-01-10T15:12:28;18.00;15.67;7.00
61542;PMS5003;47414;43.168;44.812;2023-01-10T15:17:31;25.00;24.00;14.33
61542;PMS5003;47414;43.168;44.812;2023-01-10T15:22:34;30.00;27.67;18.00
61542;PMS5003;47414;43.168;44.812;2023-01-10T15:27:35;21.67;21.00;12.00
61542;PMS5003;47414;43.168;44.812;2023-01-10T15:32:38;24.67;23.33;15.00
61542;PMS5003;47414;43.168;44.812;2023-01-10T15:37:39;24.33;24.00;14.33
61542;PMS5003;47414;43.168;44.812;2023-01-10T15:42:45;48.33;35.33;18.67
61542;PMS5003;47414;43.168;44.812;2023-01-10T15:47:50;30.00;28.00;18.33
61542;PMS5003;47414;43.168;44.812;2023-01-10T15:52:52;33.67;29.67;19.00
61542;PMS5003;47414;43.168;44.812;2023-01-10T15:57:53;34.67;30.33;20.33
61542;PMS5003;47414;43.168;44.812;2023-01-10T16:02:55;26.33;25.00;17.33
61542;PMS5003;47414;43.168;44.812;2023-01-10T16:07:56;29.33;25.33;16.67
61542;PMS5003;47414;43.168;44.812;2023-01-10T16:13:07;25.67;24.33;15.33
61542;PMS5003;47414;43.168;44.812;2023-01-10T16:18:09;30.00;30.00;18.33
61542;PMS5003;47414;43.168;44.812;2023-01-10T16:23:11;37.67;35.00;19.67
61542;PMS5003;47414;43.168;44.812;2023-01-10T16:28:13;38.33;33.67;19.67
61542;PMS5003;47414;43.168;44.812;2023-01-10T16:33:16;29.67;28.33;21.33
61542;PMS5003;47414;43.168;44.812;2023-01-10T16:38:16;42.67;35.33;19.67
61542;PMS5003;47414;43.168;44.812;2023-01-10T16:43:17;22.00;22.00;13.67
61542;PMS5003;47414;43.168;44.812;2023-01-10T16:48:19;32.33;29.33;19.00
61542;PMS5003;47414;43.168;44.812;2023-01-10T16:53:20;27.67;25.67;18.33
61542;PMS5003;47414;43.168;44.812;2023-01-10T16:58:20;26.67;25.00;17.33
61542;PMS5003;47414;43.168;44.812;2023-01-10T17:03:23;32.75;32.00;18.25
61542;PMS5003;47414;43.168;44.812;2023-01-10T17:08:24;36.75;35.00;24.75
61542;PMS5003;47414;43.168;44.812;2023-01-10T17:13:26;22.67;20.67;13.67
61542;PMS5003;47414;43.168;44.812;2023-01-10T17:18:29;27.00;26.00;17.00
61542;PMS5003;47414;43.168;44.812;2023-01-10T17:23:30;36.50;34.25;21.25
61542;PMS5003;47414;43.168;44.812;2023-01-10T17:28:30;25.00;23.50;18.00
61542;PMS5003;47414;43.168;44.812;2023-01-10T17:33:32;29.67;25.33;12.67
61542;PMS5003;47414;43.168;44.812;2023-01-10T17:38:33;37.50;33.75;18.75
61542;PMS5003;47414;43.168;44.812;2023-01-10T17:43:34;34.25;33.00;19.25
61542;PMS5003;47414;43.168;44.812;2023-01-10T17:48:36;33.75;31.50;21.50
61542;PMS5003;47414;43.168;44.812;2023-01-10T17:53:36;30.75;29.75;21.25
61542;PMS5003;47414;43.168;44.812;2023-01-10T17:58:37;19.33;19.33;10.67
61542;PMS5003;47414;43.168;44.812;2023-01-10T18:03:39;30.00;27.00;18.25
61542;PMS5003;47414;43.168;44.812;2023-01-10T18:08:39;33.00;29.75;20.00
61542;PMS5003;47414;43.168;44.812;2023-01-10T18:13:40;23.67;23.33;15.00
61542;PMS5003;47414;43.168;44.812;2023-01-10T18:18:42;26.50;24.50;15.50
61542;PMS5003;47414;43.168;44.812;2023-01-10T18:23:42;45.75;39.75;24.25
61542;PMS5003;47414;43.168;44.812;2023-01-10T18:28:43;34.50;33.75;18.00
61542;PMS5003;47414;43.168;44.812;2023-01-10T18:33:45;39.25;38.00;22.25
61542;PMS5003;47414;43.168;44.812;2023-01-10T18:38:46;29.25;28.00;18.25
61542;PMS5003;47414;43.168;44.812;2023-01-10T18:43:46;41.00;34.50;21.25
61542;PMS5003;47414;43.168;44.812;2023-01-10T18:48:50;30.33;28.67;18.00
61542;PMS5003;47414;43.168;44.812;2023-01-10T18:53:51;35.00;33.50;21.50
61542;PMS5003;47414;43.168;44.812;2023-01-10T18:58:51;25.00;24.00;12.00
61542;PMS5003;47414;43.168;44.812;2023-01-10T19:03:53;41.75;38.50;21.25
61542;PMS5003;47414;43.168;44.812;2023-01-10T19:08:54;36.33;33.00;21.00
61542;PMS5003;47414;43.168;44.812;2023-01-10T19:13:54;36.25;34.50;23.00
61542;PMS5003;47414;43.168;44.812;2023-01-10T19:18:57;41.00;37.75;22.50
61542;PMS5003;47414;43.168;44.812;2023-01-10T19:23:59;36.50;34.25;20.00
61542;PMS5003;47414;43.168;44.812;2023-01-10T19:29:01;39.25;36.00;19.50
61542;PMS5003;47414;43.168;44.812;2023-01-10T19:34:03;42.50;40.00;26.50
61542;PMS5003;47414;43.168;44.812;2023-01-10T19:39:03;30.25;29.25;16.25
61542;PMS5003;47414;43.168;44.812;2023-01-10T19:44:05;35.00;33.00;21.00
61542;PMS5003;47414;43.168;44.812;2023-01-10T19:49:09;48.25;45.75;26.50
61542;PMS5003;47414;43.168;44.812;2023-01-10T19:54:09;49.25;44.25;24.25
61542;PMS5003;47414;43.168;44.812;2023-01-10T19:59:10;46.75;42.25;27.50
61542;PMS5003;47414;43.168;44.812;2023-01-10T20:04:12;35.00;35.00;22.00
61542;PMS5003;47414;43.168;44.812;2023-01-10T20:09:12;48.50;42.75;23.50
61542;PMS5003;47414;43.168;44.812;2023-01-10T20:14:14;39.25;35.75;22.25
61542;PMS5003;47414;43.168;44.812;2023-01-10T20:19:16;32.25;31.00;21.25
61542;PMS5003;47414;43.168;44.812;2023-01-10T20:24:18;29.75;25.50;15.25
61542;PMS5003;47414;43.168;44.812;2023-01-10T20:29:19;40.50;37.00;24.75
61542;PMS5003;47414;43.168;44.812;2023-01-10T20:34:21;37.50;34.75;22.50
61542;PMS5003;47414;43.168;44.812;2023-01-10T20:39:22;27.33;25.67;19.00
61542;PMS5003;47414;43.168;44.812;2023-01-10T20:44:22;36.75;33.25;18.00
61542;PMS5003;47414;43.168;44.812;2023-01-10T20:49:24;31.75;29.75;17.50
61542;PMS5003;47414;43.168;44.812;2023-01-10T20:54:25;42.75;36.50;22.50
61542;PMS5003;47414;43.168;44.812;2023-01-10T20:59:25;28.67;23.67;14.33
61542;PMS5003;47414;43.168;44.812;2023-01-10T21:04:27;37.00;36.67;22.67
61542;PMS5003;47414;43.168;44.812;2023-01-10T21:09:28;32.00;30.67;20.00
61542;PMS5003;47414;43.168;44.812;2023-01-10T21:14:29;30.67;28.00;21.00
61542;PMS5003;47414;43.168;44.812;2023-01-10T21:19:31;33.67;29.00;18.33
61542;PMS5003;47414;43.168;44.812;2023-01-10T21:24:31;35.75;35.50;21.50
61542;PMS5003;47414;43.168;44.812;2023-01-10T21:29:32;49.50;40.00;22.00
61542;PMS5003;47414;43.168;44.812;2023-01-10T21:34:34;42.00;35.00;20.00
61542;PMS5003;47414;43.168;44.812;2023-01-10T21:39:34;37.00;36.67;24.67
61542;PMS5003;47414;43.168;44.812;2023-01-10T21:44:35;28.33;23.67;15.33
61542;PMS5003;47414;43.168;44.812;2023-01-10T21:49:36;13.00;11.33;4.67
61542;PMS5003;47414;43.168;44.812;2023-01-10T21:54:37;36.50;35.50;22.00
61542;PMS5003;47414;43.168;44.812;2023-01-10T21:59:37;30.67;27.67;18.00
61542;PMS5003;47414;43.168;44.812;2023-01-10T22:04:39;36.33;33.00;19.00
61542;PMS5003;47414;43.168;44.812;2023-01-10T22:09:40;44.00;35.00;23.00
61542;PMS5003;47414;43.168;44.812;2023-01-10T22:14:40;28.75;26.00;21.00
61542;PMS5003;47414;43.168;44.812;2023-01-10T22:19:43;40.50;40.25;25.25
61542;PMS5003;47414;43.168;44.812;2023-01-10T22:24:43;40.00;38.33;24.00
61542;PMS5003;47414;43.168;44.812;2023-01-10T22:29:44;46.25;41.00;21.75
61542;PMS5003;47414;43.168;44.812;2023-01-10T22:34:46;33.00;31.25;19.50
61542;PMS5003;47414;43.168;44.812;2023-01-10T22:39:46;31.25;29.25;18.25
61542;PMS5003;47414;43.168;44.812;2023-01-10T22:44:47;27.25;26.50;15.00
61542;PMS5003;47414;43.168;44.812;2023-01-10T22:49:49;27.00;24.00;15.33
61542;PMS5003;47414;43.168;44.812;2023-01-10T22:54:49;39.33;37.00;22.00
61542;PMS5003;47414;43.168;44.812;2023-01-10T22:59:50;16.67;15.33;12.33
61542;PMS5003;47414;43.168;44.812;2023-01-10T23:04:52;44.33;36.00;21.33
61542;PMS5003;47414;43.168;44.812;2023-01-10T23:09:52;36.25;34.50;23.50
61542;PMS5003;47414;43.168;44.812;2023-01-10T23:14:53;42.75;39.50;25.00
61542;PMS5003;47414;43.168;44.812;2023-01-10T23:19:55;47.33;37.00;22.00
61542;PMS5003;47414;43.168;44.812;2023-01-10T23:24:55;34.33;31.33;18.67
61542;PMS5003;47414;43.168;44.812;2023-01-10T23:29:56;35.33;33.67;19.00
61542;PMS5003;47414;43.168;44.812;2023-01-10T23:34:57;28.33;25.67;21.33
61542;PMS5003;47414;43.168;44.812;2023-01-10T23:39:58;40.00;37.00;23.00
61542;PMS5003;47414;43.168;44.812;2023-01-10T23:44:58;33.33;29.33;20.33
61542;PMS5003;47414;43.168;44.812;2023-01-10T23:50:00;36.25;32.25;20.00
61542;PMS5003;47414;43.168;44.812;2023-01-10T23:55:01;32.50;28.75;17.00
